createdAt,value
2023-03-08T00:01:34.368Z,74.95
2023-03-08T00:04:01.503Z,75.19
2023-03-08T00:06:28.811Z,75.15
2023-03-08T00:08:57.951Z,73.68
2023-03-08T00:11:25.666Z,75.00
2023-03-08T00:13:52.721Z,72.33
2023-03-08T00:16:20.090Z,74.25
2023-03-08T00:18:47.633Z,74.83
2023-03-08T00:21:17.462Z,73.76
2023-03-08T00:23:45.380Z,73.55
2023-03-08T00:26:12.889Z,72.12
2023-03-08T00:28:41.104Z,71.52
2023-03-08T00:31:13.344Z,72.95
2023-03-08T00:33:41.341Z,73.92
2023-03-08T00:36:19.057Z,72.81
2023-03-08T00:38:47.528Z,74.05
2023-03-08T00:41:15.093Z,74.50
2023-03-08T00:43:44.857Z,73.01
2023-03-08T00:46:13.195Z,71.56
2023-03-08T00:48:40.918Z,73.13
2023-03-08T00:51:08.511Z,72.75
2023-03-08T00:53:35.621Z,72.70
2023-03-08T00:56:03.058Z,72.42
2023-03-08T00:58:32.186Z,71.72
2023-03-08T01:00:59.803Z,71.56
2023-03-08T01:03:27.564Z,70.60
2023-03-08T01:05:57.444Z,69.91
2023-03-08T01:08:26.408Z,72.54
2023-03-08T01:10:59.398Z,72.55
2023-03-08T01:13:30.032Z,71.12
2023-03-08T01:15:58.112Z,71.82
2023-03-08T01:18:25.999Z,72.45
2023-03-08T01:21:03.772Z,70.21
2023-03-08T01:23:31.655Z,71.82
2023-03-08T01:26:08.042Z,70.45
2023-03-08T01:28:35.692Z,71.36
2023-03-08T01:31:04.907Z,73.13
2023-03-08T01:33:33.793Z,72.79
2023-03-08T01:36:09.567Z,71.52
2023-03-08T01:38:37.328Z,71.15
2023-03-08T01:41:06.466Z,71.84
2023-03-08T01:43:36.799Z,70.86
2023-03-08T01:46:25.161Z,71.99
2023-03-08T01:49:27.392Z,72.80
2023-03-08T01:52:10.048Z,73.11
2023-03-08T01:54:48.213Z,72.97
2023-03-08T01:57:24.180Z,73.30
2023-03-08T01:59:53.861Z,73.45
2023-03-08T02:02:28.204Z,72.38
2023-03-08T02:04:56.321Z,72.05
2023-03-08T02:07:23.803Z,73.55
2023-03-08T02:09:51.308Z,73.31
2023-03-08T02:12:19.660Z,72.24
2023-03-08T02:14:46.794Z,71.73
2023-03-08T02:17:14.046Z,73.14
2023-03-08T02:19:54.363Z,73.22
2023-03-08T02:22:22.346Z,70.62
2023-03-08T02:24:49.440Z,70.06
2023-03-08T02:27:26.243Z,69.84
2023-03-08T02:29:54.438Z,69.48
2023-03-08T02:32:23.507Z,68.88
2023-03-08T02:34:50.640Z,69.00
2023-03-08T02:37:17.778Z,68.63
2023-03-08T02:39:48.076Z,68.38
2023-03-08T02:42:15.353Z,68.65
2023-03-08T02:44:43.356Z,68.42
2023-03-08T02:47:10.850Z,68.29
2023-03-08T02:49:38.273Z,67.93
2023-03-08T02:52:05.669Z,71.70
2023-03-08T02:54:32.672Z,71.54
2023-03-08T02:57:01.332Z,70.18
2023-03-08T02:59:30.948Z,69.39
2023-03-08T03:01:59.847Z,73.16
2023-03-08T03:04:32.558Z,73.98
2023-03-08T03:07:00.654Z,74.03
2023-03-08T03:09:29.080Z,72.43
2023-03-08T03:11:57.163Z,73.32
2023-03-08T03:14:28.344Z,73.98
2023-03-08T03:16:56.403Z,75.45
2023-03-08T03:19:23.514Z,75.76
2023-03-08T03:21:50.589Z,75.56
2023-03-08T03:24:17.805Z,75.06
2023-03-08T03:26:51.670Z,73.54
2023-03-08T03:29:20.034Z,71.04
2023-03-08T03:31:51.964Z,71.44
2023-03-08T03:34:20.168Z,71.33
2023-03-08T03:36:49.361Z,70.75
2023-03-08T03:39:16.507Z,70.55
2023-03-08T03:41:45.107Z,70.46
2023-03-08T03:44:14.476Z,70.79
2023-03-08T03:46:44.273Z,70.81
2023-03-08T03:49:14.346Z,70.82
2023-03-08T03:51:44.035Z,70.55
2023-03-08T03:54:37.235Z,70.75
2023-03-08T03:57:04.569Z,70.65
2023-03-08T03:59:36.335Z,71.13
2023-03-08T04:02:04.386Z,70.98
2023-03-08T04:04:39.921Z,70.85
2023-03-08T04:07:08.013Z,70.60
2023-03-08T04:09:40.466Z,71.14
2023-03-08T04:12:14.999Z,71.23
2023-03-08T04:14:42.211Z,71.25
2023-03-08T04:17:11.881Z,71.35
2023-03-08T04:19:50.455Z,71.05
2023-03-08T04:22:18.949Z,70.98
2023-03-08T04:24:53.420Z,71.10
2023-03-08T04:27:35.239Z,70.87
2023-03-08T04:30:04.238Z,70.62
2023-03-08T04:32:32.983Z,70.42
2023-03-08T04:35:00.626Z,70.42
2023-03-08T04:37:30.731Z,70.46
2023-03-08T04:40:09.420Z,70.84
2023-03-08T04:42:43.496Z,70.45
2023-03-08T04:45:13.226Z,70.79
2023-03-08T04:47:40.697Z,70.36
2023-03-08T04:50:08.925Z,70.37
2023-03-08T04:52:36.868Z,70.27
2023-03-08T04:55:06.393Z,74.75
2023-03-08T04:57:35.333Z,74.85
2023-03-08T05:00:06.108Z,76.69
2023-03-08T05:02:38.021Z,75.92
2023-03-08T05:05:10.190Z,76.82
2023-03-08T05:07:37.433Z,76.88
2023-03-08T05:10:04.900Z,76.43
2023-03-08T05:12:32.013Z,74.31
2023-03-08T05:15:00.905Z,72.52
2023-03-08T05:17:28.470Z,71.29
2023-03-08T05:19:56.085Z,70.75
2023-03-08T05:22:30.945Z,69.62
2023-03-08T05:24:58.722Z,68.66
2023-03-08T05:27:27.018Z,68.22
2023-03-08T05:29:54.117Z,68.14
2023-03-08T05:32:22.891Z,67.69
2023-03-08T05:34:52.955Z,67.43
2023-03-08T05:37:27.775Z,67.29
2023-03-08T05:39:58.868Z,65.97
2023-03-08T05:42:27.641Z,65.98
2023-03-08T05:44:55.865Z,65.18
2023-03-08T05:47:30.495Z,65.01
2023-03-08T05:49:57.918Z,64.61
2023-03-08T05:52:25.233Z,65.09
2023-03-08T05:54:52.594Z,64.92
2023-03-08T05:57:20.645Z,63.39
2023-03-08T05:59:49.543Z,63.39
2023-03-08T06:02:20.575Z,64.30
2023-03-08T06:04:50.182Z,63.83
2023-03-08T06:07:20.493Z,63.10
2023-03-08T06:09:52.725Z,62.92
2023-03-08T06:12:19.969Z,62.03
2023-03-08T06:14:51.530Z,61.71
2023-03-08T06:17:21.377Z,61.43
2023-03-08T06:19:50.939Z,60.56
2023-03-08T06:22:18.724Z,60.19
2023-03-08T06:24:49.981Z,59.85
2023-03-08T06:27:26.597Z,59.46
2023-03-08T06:29:55.743Z,59.10
2023-03-08T06:32:23.867Z,59.64
2023-03-08T06:34:51.677Z,59.08
2023-03-08T06:37:19.318Z,59.16
2023-03-08T06:39:46.709Z,57.63
2023-03-08T06:42:13.822Z,58.29
2023-03-08T06:44:40.920Z,58.91
2023-03-08T06:47:08.059Z,58.50
2023-03-08T06:49:35.782Z,58.44
2023-03-08T06:52:02.921Z,57.60
2023-03-08T06:54:30.212Z,56.55
2023-03-08T06:57:17.732Z,57.69
2023-03-08T06:59:45.018Z,57.83
2023-03-08T07:02:12.191Z,57.38
2023-03-08T07:04:39.463Z,56.54
2023-03-08T07:07:08.108Z,57.07
2023-03-08T07:09:35.494Z,57.08
2023-03-08T07:12:02.672Z,56.65
2023-03-08T07:14:29.865Z,56.27
2023-03-08T07:16:56.987Z,54.61
2023-03-08T07:19:24.140Z,56.42
2023-03-08T07:21:51.228Z,56.09
2023-03-08T07:24:18.404Z,55.97
2023-03-08T07:26:45.533Z,55.36
2023-03-08T07:29:12.583Z,56.17
2023-03-08T07:31:39.754Z,57.44
2023-03-08T07:34:06.840Z,58.46
2023-03-08T07:36:34.425Z,56.95
2023-03-08T07:39:01.596Z,56.31
2023-03-08T07:41:31.830Z,57.36
2023-03-08T07:43:59.032Z,57.79
2023-03-08T07:46:28.374Z,55.02
2023-03-08T07:48:55.632Z,56.64
2023-03-08T07:51:23.436Z,56.94
2023-03-08T07:53:52.500Z,56.87
2023-03-08T07:56:19.621Z,55.78
2023-03-08T07:58:46.887Z,55.35
2023-03-08T08:01:14.897Z,54.99
2023-03-08T08:03:43.688Z,54.20
2023-03-08T08:06:10.942Z,53.74
2023-03-08T08:08:38.067Z,53.00
2023-03-08T08:11:15.977Z,54.01
2023-03-08T08:13:43.402Z,52.95
2023-03-08T08:16:10.598Z,54.09
2023-03-08T08:18:37.688Z,53.14
2023-03-08T08:21:07.782Z,53.25
2023-03-08T08:23:35.912Z,50.29
2023-03-08T08:26:08.048Z,49.79
2023-03-08T08:28:35.940Z,50.38
2023-03-08T08:31:06.701Z,48.96
2023-03-08T08:33:35.017Z,48.72
2023-03-08T08:36:12.163Z,47.67
2023-03-08T08:38:39.397Z,43.16
2023-03-08T08:41:08.411Z,43.44
2023-03-08T08:43:36.622Z,43.14
2023-03-08T08:46:05.464Z,43.12
2023-03-08T08:48:33.445Z,43.08
2023-03-08T08:51:01.282Z,43.58
2023-03-08T08:53:28.722Z,43.85
2023-03-08T08:55:56.000Z,44.54
2023-03-08T08:58:23.464Z,45.83
2023-03-08T09:00:50.703Z,45.06
2023-03-08T09:03:17.908Z,45.53
2023-03-08T09:05:45.604Z,44.95
2023-03-08T09:08:13.337Z,46.15
2023-03-08T09:10:41.242Z,46.61
2023-03-08T09:13:08.549Z,46.38
2023-03-08T09:15:37.340Z,45.54
2023-03-08T09:18:05.800Z,46.02
2023-03-08T09:20:33.080Z,46.13
2023-03-08T09:23:00.229Z,47.62
2023-03-08T09:25:27.435Z,47.18
2023-03-08T09:27:54.591Z,46.69
2023-03-08T09:30:21.985Z,46.28
2023-03-08T09:32:49.218Z,46.25
2023-03-08T09:35:16.396Z,45.19
2023-03-08T09:37:43.654Z,45.97
2023-03-08T09:40:20.218Z,46.28
2023-03-08T09:42:47.262Z,45.28
2023-03-08T10:17:27.581Z,39.45
2023-03-08T10:20:09.153Z,38.95
2023-03-08T10:22:42.571Z,38.30
2023-03-08T10:25:31.752Z,38.60
2023-03-08T10:28:04.655Z,37.75
2023-03-08T10:30:38.120Z,37.90
2023-03-08T10:33:10.538Z,38.37
2023-03-08T10:36:06.552Z,39.42
2023-03-08T10:38:35.823Z,38.14
2023-03-08T10:41:15.009Z,37.55
2023-03-08T10:43:47.319Z,37.75
2023-03-08T10:46:50.179Z,38.15
2023-03-08T10:49:20.164Z,39.07
2023-03-08T10:52:01.651Z,36.63
2023-03-08T10:54:29.467Z,36.48
2023-03-08T10:57:00.405Z,37.96
2023-03-08T10:59:33.317Z,38.05
2023-03-08T11:02:23.067Z,37.83
2023-03-08T11:04:54.588Z,37.71
2023-03-08T11:07:28.085Z,37.54
2023-03-08T11:10:25.766Z,36.72
2023-03-08T11:13:21.673Z,36.92
2023-03-08T11:16:03.797Z,36.98
2023-03-08T11:18:40.103Z,37.27
2023-03-08T11:21:33.593Z,35.03
2023-03-08T11:24:12.424Z,33.77
2023-03-08T11:27:02.797Z,33.49
2023-03-08T11:29:32.405Z,33.65
2023-03-08T11:32:05.528Z,33.60
2023-03-08T11:34:43.240Z,33.68
2023-03-08T11:37:19.976Z,32.70
2023-03-08T11:39:55.286Z,33.87
2023-03-08T11:42:22.430Z,32.57
2023-03-08T11:45:00.818Z,33.76
2023-03-08T11:47:43.974Z,33.53
2023-03-08T11:50:19.820Z,33.17
2023-03-08T11:52:47.030Z,33.94
2023-03-08T11:55:22.812Z,33.85
2023-03-08T11:58:11.809Z,34.28
2023-03-08T12:00:42.279Z,35.00
2023-03-08T12:03:15.316Z,34.88
2023-03-08T12:05:50.600Z,34.05
2023-03-08T12:08:25.270Z,33.35
2023-03-08T12:10:56.521Z,33.50
2023-03-08T12:13:33.812Z,33.14
2023-03-08T12:16:12.756Z,33.42
2023-03-08T12:18:46.863Z,33.20
2023-03-08T12:21:25.265Z,34.31
2023-03-08T12:24:17.760Z,32.95
2023-03-08T12:26:50.137Z,33.41
2023-03-08T12:29:49.623Z,32.95
2023-03-08T12:32:18.996Z,33.73
2023-03-08T12:34:47.392Z,34.50
2023-03-08T12:37:25.536Z,34.72
2023-03-08T12:40:05.999Z,34.76
2023-03-08T12:42:42.126Z,33.95
2023-03-08T12:45:28.125Z,34.36
2023-03-08T12:48:07.467Z,33.79
2023-03-08T12:50:54.295Z,34.08
2023-03-08T12:53:21.227Z,33.92
2023-03-08T12:56:01.101Z,33.24
2023-03-08T12:58:28.918Z,32.54
2023-03-08T13:01:06.722Z,32.71
2023-03-08T13:03:41.913Z,32.83
2023-03-08T13:06:24.489Z,32.13
2023-03-08T13:09:27.118Z,33.78
2023-03-08T13:12:06.448Z,32.51
2023-03-08T13:14:41.830Z,33.61
2023-03-08T13:17:33.374Z,34.28
2023-03-08T13:20:15.991Z,33.16
2023-03-08T13:23:03.807Z,32.87
2023-03-08T13:25:45.574Z,33.28
2023-03-08T13:28:19.312Z,32.91
2023-03-08T13:30:52.234Z,34.29
2023-03-08T13:33:26.653Z,33.05
2023-03-08T13:36:04.126Z,32.90
2023-03-08T13:38:37.408Z,32.75
2023-03-08T13:41:05.042Z,32.39
2023-03-08T13:43:34.179Z,32.84
2023-03-08T13:46:04.760Z,33.11
2023-03-08T13:48:35.304Z,33.66
2023-03-08T13:51:03.512Z,34.45
2023-03-08T13:53:37.801Z,34.06
2023-03-08T13:56:07.136Z,34.16
2023-03-08T13:58:34.312Z,35.07
2023-03-08T14:01:02.857Z,34.56
2023-03-08T14:03:32.294Z,34.31
2023-03-08T14:05:59.591Z,33.80
2023-03-08T14:08:28.364Z,33.84
2023-03-08T14:11:01.097Z,33.27
2023-03-08T14:13:34.686Z,33.42
2023-03-08T14:16:05.197Z,34.09
2023-03-08T14:18:38.467Z,34.36
2023-03-08T14:21:23.967Z,33.25
2023-03-08T14:23:56.058Z,33.79
2023-03-08T14:26:36.052Z,32.98
2023-03-08T14:29:14.113Z,33.52
2023-03-08T14:31:52.794Z,33.59
2023-03-08T14:34:24.150Z,33.27
2023-03-08T14:37:16.843Z,34.59
2023-03-08T14:39:46.885Z,35.17
2023-03-08T14:42:34.501Z,35.07
2023-03-08T14:45:25.310Z,35.44
2023-03-08T14:47:58.401Z,35.58
2023-03-08T14:50:25.497Z,36.28
2023-03-08T14:52:55.644Z,34.71
2023-03-08T14:55:26.605Z,35.48
2023-03-08T14:57:58.219Z,35.28
2023-03-08T15:00:27.782Z,34.91
2023-03-08T15:02:59.242Z,34.60
2023-03-08T15:05:29.442Z,36.16
2023-03-08T15:07:59.458Z,36.13
2023-03-08T15:10:32.735Z,36.07
2023-03-08T15:13:00.378Z,36.64
2023-03-08T15:15:27.591Z,36.13
2023-03-08T15:17:54.859Z,35.86
2023-03-08T15:20:23.411Z,35.85
2023-03-08T15:22:54.472Z,35.99
2023-03-08T15:25:38.654Z,36.70
2023-03-08T15:28:06.603Z,37.00
2023-03-08T15:30:33.830Z,37.28
2023-03-08T15:33:02.726Z,36.64
2023-03-08T15:35:30.730Z,38.62
2023-03-08T15:37:57.838Z,39.38
2023-03-08T15:40:29.900Z,39.74
2023-03-08T15:42:58.207Z,39.73
2023-03-08T15:45:25.457Z,40.08
2023-03-08T15:47:56.746Z,40.71
2023-03-08T15:50:24.258Z,41.58
2023-03-08T15:52:52.542Z,41.09
2023-03-08T15:55:19.735Z,41.42
2023-03-08T15:57:46.985Z,40.70
2023-03-08T16:00:15.824Z,42.04
2023-03-08T16:02:43.255Z,43.26
2023-03-08T16:05:13.104Z,42.81
2023-03-08T16:07:40.927Z,42.39
2023-03-08T16:10:14.550Z,42.52
2023-03-08T16:12:43.016Z,42.90
2023-03-08T16:15:10.840Z,44.62
2023-03-08T16:17:38.018Z,46.29
2023-03-08T16:20:06.553Z,45.40
2023-03-08T16:22:34.915Z,44.57
2023-03-08T16:25:02.084Z,44.99
2023-03-08T16:27:36.205Z,45.05
2023-03-08T16:30:04.676Z,45.80
2023-03-08T16:32:32.071Z,46.55
2023-03-08T16:35:00.050Z,46.74
2023-03-08T16:37:28.156Z,46.67
2023-03-08T16:39:57.640Z,46.22
2023-03-08T16:42:25.703Z,48.88
2023-03-08T16:44:54.697Z,49.47
2023-03-08T16:47:23.852Z,49.60
2023-03-08T16:49:50.970Z,48.82
2023-03-08T16:52:18.825Z,46.59
2023-03-08T16:54:45.984Z,46.06
2023-03-08T16:57:19.399Z,45.98
2023-03-08T16:59:47.424Z,43.61
2023-03-08T17:02:22.154Z,42.50
2023-03-08T17:04:50.206Z,42.76
2023-03-08T17:07:17.902Z,43.11
2023-03-08T17:09:46.511Z,42.89
2023-03-08T17:12:13.978Z,44.13
2023-03-08T17:14:41.362Z,44.59
2023-03-08T17:17:10.512Z,43.95
2023-03-08T17:19:40.772Z,43.34
2023-03-08T17:22:08.829Z,43.28
2023-03-08T17:24:35.991Z,43.42
2023-03-08T17:27:03.219Z,43.66
2023-03-08T17:29:30.524Z,43.77
2023-03-08T17:31:57.589Z,43.69
2023-03-08T17:34:24.959Z,42.64
2023-03-08T17:36:52.092Z,42.73
2023-03-08T17:39:19.764Z,42.74
2023-03-08T17:41:47.579Z,42.40
2023-03-08T17:44:16.779Z,42.06
2023-03-08T17:46:43.881Z,42.80
2023-03-08T17:49:13.149Z,42.60
2023-03-08T17:51:40.348Z,41.96
2023-03-08T17:54:09.687Z,42.04
2023-03-08T17:56:38.692Z,41.97
2023-03-08T17:59:05.817Z,42.14
2023-03-08T18:01:33.248Z,41.21
2023-03-08T18:04:00.837Z,41.03
2023-03-08T18:06:33.406Z,40.47
2023-03-08T18:09:06.349Z,40.93
2023-03-08T18:11:40.124Z,41.02
2023-03-08T18:14:13.423Z,42.25
2023-03-08T18:16:41.520Z,42.56
2023-03-08T18:19:08.813Z,43.51
2023-03-08T18:21:38.355Z,43.80
2023-03-08T18:24:07.571Z,44.21
2023-03-08T18:26:34.634Z,45.25
2023-03-08T18:29:02.153Z,45.03
2023-03-08T18:31:31.157Z,43.37
2023-03-08T18:33:58.430Z,43.91
2023-03-08T18:36:25.617Z,44.35
2023-03-08T18:38:52.787Z,44.45
2023-03-08T18:41:23.319Z,44.76
2023-03-08T18:43:51.379Z,45.33
2023-03-08T18:46:19.490Z,44.02
2023-03-08T18:48:50.938Z,44.52
2023-03-08T18:51:18.294Z,46.03
2023-03-08T18:53:45.529Z,46.29
2023-03-08T18:56:12.982Z,46.01
2023-03-08T18:58:40.450Z,46.04
2023-03-08T19:01:13.071Z,46.35
2023-03-08T19:03:41.183Z,46.20
2023-03-08T19:06:09.574Z,46.56
2023-03-08T19:08:36.730Z,46.68
2023-03-08T19:11:20.681Z,46.15
2023-03-08T19:13:48.781Z,46.23
2023-03-08T19:16:20.552Z,46.78
2023-03-08T19:18:49.272Z,46.06
2023-03-08T19:21:23.418Z,46.51
2023-03-08T19:23:50.578Z,46.30
2023-03-08T19:26:39.044Z,46.54
2023-03-08T19:29:07.921Z,45.46
2023-03-08T19:31:58.519Z,45.50
2023-03-08T19:34:41.683Z,45.14
2023-03-08T19:37:09.724Z,46.65
2023-03-08T19:39:38.220Z,47.32
2023-03-08T19:42:09.429Z,47.26
2023-03-08T19:44:37.175Z,46.56
2023-03-08T19:47:04.817Z,48.05
2023-03-08T19:49:34.538Z,47.64
2023-03-08T19:52:04.340Z,46.95
2023-03-08T19:54:32.120Z,46.52
2023-03-08T19:57:00.000Z,46.54
2023-03-08T19:59:28.050Z,46.59
2023-03-08T20:01:55.854Z,46.12
2023-03-08T20:04:23.179Z,46.78
2023-03-08T20:06:51.376Z,46.24
2023-03-08T20:09:24.085Z,45.58
2023-03-08T20:11:53.349Z,45.67
2023-03-08T20:14:24.079Z,46.54
2023-03-08T20:16:51.696Z,46.63
2023-03-08T20:19:19.238Z,46.11
2023-03-08T20:21:46.787Z,45.28
2023-03-08T20:24:14.653Z,45.51
2023-03-08T20:26:42.205Z,46.42
2023-03-08T20:29:09.367Z,46.53
2023-03-08T20:31:36.444Z,45.53
2023-03-08T20:34:03.654Z,45.64
2023-03-08T20:36:30.776Z,45.72
2023-03-08T20:38:59.451Z,46.17
2023-03-08T20:41:27.339Z,45.89
2023-03-08T20:43:57.691Z,46.94
2023-03-08T20:46:29.633Z,46.50
2023-03-08T20:48:57.150Z,46.78
2023-03-08T20:51:24.495Z,45.34
2023-03-08T20:53:54.298Z,46.08
2023-03-08T20:56:22.627Z,44.50
2023-03-08T20:58:50.355Z,43.79
2023-03-08T21:01:20.815Z,43.25
2023-03-08T21:03:48.897Z,41.55
2023-03-08T21:06:25.994Z,40.78
2023-03-08T21:08:53.794Z,39.63
2023-03-08T21:11:21.993Z,39.87
2023-03-08T21:13:50.449Z,42.29
2023-03-08T21:16:20.385Z,42.12
2023-03-08T21:18:52.808Z,41.81
2023-03-08T21:21:35.585Z,42.11
2023-03-08T21:24:05.470Z,43.79
2023-03-08T21:26:34.725Z,42.74
2023-03-08T21:29:04.879Z,41.89
2023-03-08T21:31:33.796Z,41.99
2023-03-08T21:34:08.024Z,41.83
2023-03-08T21:36:38.126Z,42.26
2023-03-08T21:39:07.190Z,44.40
2023-03-08T21:41:37.751Z,45.71
2023-03-08T21:44:09.523Z,44.53
2023-03-08T21:46:37.561Z,44.34
2023-03-08T21:49:05.208Z,44.19
2023-03-08T21:51:33.449Z,45.96
2023-03-08T21:54:00.823Z,45.07
2023-03-08T21:56:27.908Z,43.32
2023-03-08T21:58:55.922Z,42.83
2023-03-08T22:01:26.041Z,41.92
2023-03-08T22:03:53.250Z,42.79
2023-03-08T22:06:21.221Z,43.30
2023-03-08T22:08:48.960Z,42.71
2023-03-08T22:11:16.622Z,42.84
2023-03-08T22:13:44.201Z,42.33
2023-03-08T22:16:11.396Z,42.28
2023-03-08T22:18:38.579Z,43.02
2023-03-08T22:21:05.800Z,42.51
2023-03-08T22:23:33.287Z,42.09
2023-03-08T22:26:00.616Z,42.65
2023-03-08T22:28:27.736Z,42.46
2023-03-08T22:30:54.880Z,41.82
2023-03-08T22:33:21.964Z,42.92
2023-03-08T22:35:49.325Z,43.68
2023-03-08T22:38:18.869Z,43.54
2023-03-08T22:40:45.996Z,44.10
2023-03-08T22:43:13.105Z,44.41
2023-03-08T22:45:40.235Z,45.25
2023-03-08T22:48:07.433Z,46.01
2023-03-08T22:50:34.499Z,46.61
2023-03-08T22:53:01.686Z,46.19
2023-03-08T22:55:28.789Z,45.65
2023-03-08T22:57:55.821Z,45.52
2023-03-08T23:00:22.956Z,45.67
2023-03-08T23:02:50.681Z,46.11
2023-03-08T23:05:20.390Z,46.17
2023-03-08T23:07:47.558Z,45.90
2023-03-08T23:10:16.084Z,45.98
2023-03-08T23:12:43.222Z,45.96
2023-03-08T23:15:10.702Z,48.28
2023-03-08T23:17:37.843Z,49.12
2023-03-08T23:20:05.812Z,48.60
2023-03-08T23:22:33.088Z,48.36
2023-03-08T23:25:00.181Z,48.20
2023-03-08T23:27:27.348Z,48.32
2023-03-08T23:29:54.448Z,47.67
2023-03-08T23:32:21.652Z,48.10
2023-03-08T23:34:48.738Z,48.19
2023-03-08T23:37:15.827Z,48.24
2023-03-08T23:39:42.960Z,48.74
2023-03-08T23:42:10.073Z,50.83
2023-03-08T23:44:38.050Z,52.46
2023-03-08T23:47:05.309Z,51.50
2023-03-08T23:49:32.446Z,50.28
2023-03-08T23:51:59.529Z,50.29
2023-03-08T23:54:26.793Z,52.31
2023-03-08T23:56:53.850Z,53.75
2023-03-08T23:59:23.034Z,53.62
